sensor_id;sensor_type;location;lat;lon;timestamp;pressure;altitude;pressure_sealevel;temperature;humidity
11523;BME280;40093;43.224;27.910;2023-01-29T00:01:37;100664.53;;;2.49;100.00
11523;BME280;40093;43.224;27.910;2023-01-29T00:04:04;100678.28;;;2.53;100.00
11523;BME280;40093;43.224;27.910;2023-01-29T00:06:31;100670.63;;;2.55;100.00
11523;BME280;40093;43.224;27.910;2023-01-29T00:08:58;100680.53;;;2.68;100.00
11523;BME280;40093;43.224;27.910;2023-01-29T00:11:25;100679.88;;;2.71;100.00
11523;BME280;40093;43.224;27.910;2023-01-29T00:13:52;100675.09;;;2.68;100.00
11523;BME280;40093;43.224;27.910;2023-01-29T00:16:18;100676.69;;;2.69;100.00
11523;BME280;40093;43.224;27.910;2023-01-29T00:18:47;100678.44;;;2.48;100.00
11523;BME280;40093;43.224;27.910;2023-01-29T00:21:15;100684.16;;;2.30;100.00
11523;BME280;40093;43.224;27.910;2023-01-29T00:23:43;100692.00;;;2.39;100.00
11523;BME280;40093;43.224;27.910;2023-01-29T00:26:11;100686.22;;;2.24;100.00
11523;BME280;40093;43.224;27.910;2023-01-29T00:28:38;100682.03;;;2.18;100.00
11523;BME280;40093;43.224;27.910;2023-01-29T00:31:09;100688.94;;;2.24;100.00
11523;BME280;40093;43.224;27.910;2023-01-29T00:33:36;100683.97;;;2.26;100.00
11523;BME280;40093;43.224;27.910;2023-01-29T00:36:06;100689.75;;;2.41;100.00
11523;BME280;40093;43.224;27.910;2023-01-29T00:38:34;100677.94;;;2.29;100.00
11523;BME280;40093;43.224;27.910;2023-01-29T00:41:05;100672.81;;;2.19;100.00
11523;BME280;40093;43.224;27.910;2023-01-29T00:43:49;100679.19;;;2.32;100.00
11523;BME280;40093;43.224;27.910;2023-01-29T00:46:39;100675.06;;;2.42;100.00
11523;BME280;40093;43.224;27.910;2023-01-29T00:49:06;100677.00;;;2.42;100.00
11523;BME280;40093;43.224;27.910;2023-01-29T00:51:35;100679.84;;;2.37;100.00
11523;BME280;40093;43.224;27.910;2023-01-29T00:54:03;100687.69;;;2.47;100.00
11523;BME280;40093;43.224;27.910;2023-01-29T00:56:32;100680.53;;;2.51;100.00
11523;BME280;40093;43.224;27.910;2023-01-29T00:59:00;100675.56;;;2.53;100.00
11523;BME280;40093;43.224;27.910;2023-01-29T01:01:27;100673.94;;;2.43;100.00
11523;BME280;40093;43.224;27.910;2023-01-29T01:04:12;100671.88;;;2.32;100.00
11523;BME280;40093;43.224;27.910;2023-01-29T01:06:41;100653.59;;;2.07;100.00
11523;BME280;40093;43.224;27.910;2023-01-29T01:09:09;100680.97;;;2.28;100.00
11523;BME280;40093;43.224;27.910;2023-01-29T01:11:54;100676.47;;;2.23;100.00
11523;BME280;40093;43.224;27.910;2023-01-29T01:14:21;100680.97;;;2.36;100.00
11523;BME280;40093;43.224;27.910;2023-01-29T01:16:48;100677.88;;;2.12;100.00
11523;BME280;40093;43.224;27.910;2023-01-29T01:19:15;100678.38;;;2.14;100.00
11523;BME280;40093;43.224;27.910;2023-01-29T01:21:44;100671.50;;;2.08;100.00
11523;BME280;40093;43.224;27.910;2023-01-29T01:24:13;100678.53;;;2.09;100.00
11523;BME280;40093;43.224;27.910;2023-01-29T01:26:40;100691.00;;;2.10;100.00
11523;BME280;40093;43.224;27.910;2023-01-29T01:29:06;100665.44;;;2.11;100.00
11523;BME280;40093;43.224;27.910;2023-01-29T01:31:33;100686.50;;;2.14;100.00
11523;BME280;40093;43.224;27.910;2023-01-29T01:34:00;100688.56;;;2.00;100.00
11523;BME280;40093;43.224;27.910;2023-01-29T01:36:27;100697.38;;;2.14;100.00
11523;BME280;40093;43.224;27.910;2023-01-29T01:38:55;100686.81;;;2.04;100.00
11523;BME280;40093;43.224;27.910;2023-01-29T01:41:22;100699.34;;;1.83;100.00
11523;BME280;40093;43.224;27.910;2023-01-29T01:43:51;100690.47;;;2.00;100.00
11523;BME280;40093;43.224;27.910;2023-01-29T01:46:18;100697.19;;;2.11;100.00
11523;BME280;40093;43.224;27.910;2023-01-29T01:48:49;100706.81;;;2.17;100.00
11523;BME280;40093;43.224;27.910;2023-01-29T01:51:19;100701.38;;;2.08;100.00
11523;BME280;40093;43.224;27.910;2023-01-29T01:53:50;100707.13;;;2.15;100.00
11523;BME280;40093;43.224;27.910;2023-01-29T01:56:24;100714.78;;;2.13;100.00
11523;BME280;40093;43.224;27.910;2023-01-29T01:58:54;100711.44;;;2.16;100.00
11523;BME280;40093;43.224;27.910;2023-01-29T02:01:23;100720.00;;;2.01;100.00
11523;BME280;40093;43.224;27.910;2023-01-29T02:03:56;100720.59;;;1.90;100.00
11523;BME280;40093;43.224;27.910;2023-01-29T02:06:43;100721.78;;;2.06;100.00
11523;BME280;40093;43.224;27.910;2023-01-29T02:09:31;100701.13;;;1.96;100.00
11523;BME280;40093;43.224;27.910;2023-01-29T02:12:02;100726.13;;;2.15;100.00
11523;BME280;40093;43.224;27.910;2023-01-29T02:14:30;100738.56;;;2.16;100.00
11523;BME280;40093;43.224;27.910;2023-01-29T02:16:59;100724.97;;;2.08;100.00
11523;BME280;40093;43.224;27.910;2023-01-29T02:19:38;100724.81;;;2.04;100.00
11523;BME280;40093;43.224;27.910;2023-01-29T02:22:33;100730.88;;;2.01;100.00
11523;BME280;40093;43.224;27.910;2023-01-29T02:25:28;100722.91;;;2.13;100.00
11523;BME280;40093;43.224;27.910;2023-01-29T02:28:19;100722.91;;;2.13;100.00
11523;BME280;40093;43.224;27.910;2023-01-29T02:30:55;100725.81;;;2.25;100.00
11523;BME280;40093;43.224;27.910;2023-01-29T02:33:30;100725.81;;;2.25;100.00
11523;BME280;40093;43.224;27.910;2023-01-29T02:36:07;100718.53;;;2.42;100.00
11523;BME280;40093;43.224;27.910;2023-01-29T02:38:40;100705.50;;;2.14;100.00
11523;BME280;40093;43.224;27.910;2023-01-29T02:41:14;100692.59;;;2.11;100.00
11523;BME280;40093;43.224;27.910;2023-01-29T02:43:47;100690.56;;;1.86;100.00
11523;BME280;40093;43.224;27.910;2023-01-29T02:46:21;100703.16;;;1.82;100.00
11523;BME280;40093;43.224;27.910;2023-01-29T02:48:57;100690.31;;;1.66;100.00
11523;BME280;40093;43.224;27.910;2023-01-29T02:51:29;100651.84;;;1.55;100.00
11523;BME280;40093;43.224;27.910;2023-01-29T02:54:02;100630.47;;;1.62;100.00
11523;BME280;40093;43.224;27.910;2023-01-29T02:56:35;100675.59;;;1.50;100.00
11523;BME280;40093;43.224;27.910;2023-01-29T02:59:08;100623.94;;;1.24;100.00
11523;BME280;40093;43.224;27.910;2023-01-29T03:01:41;100644.03;;;1.23;100.00
11523;BME280;40093;43.224;27.910;2023-01-29T03:04:14;100599.25;;;1.04;100.00
11523;BME280;40093;43.224;27.910;2023-01-29T03:06:45;100653.81;;;1.11;100.00
11523;BME280;40093;43.224;27.910;2023-01-29T03:09:19;100631.19;;;1.07;100.00
11523;BME280;40093;43.224;27.910;2023-01-29T03:11:52;100643.19;;;1.14;100.00
11523;BME280;40093;43.224;27.910;2023-01-29T03:14:25;100658.84;;;1.26;100.00
11523;BME280;40093;43.224;27.910;2023-01-29T03:17:15;100654.44;;;1.30;100.00
11523;BME280;40093;43.224;27.910;2023-01-29T03:19:44;100647.56;;;1.32;100.00
11523;BME280;40093;43.224;27.910;2023-01-29T03:22:14;100666.88;;;1.31;100.00
11523;BME280;40093;43.224;27.910;2023-01-29T03:24:48;100669.25;;;1.32;100.00
11523;BME280;40093;43.224;27.910;2023-01-29T03:27:37;100635.38;;;1.21;100.00
11523;BME280;40093;43.224;27.910;2023-01-29T03:30:26;100603.31;;;1.15;100.00
11523;BME280;40093;43.224;27.910;2023-01-29T03:33:13;100573.81;;;1.13;100.00
11523;BME280;40093;43.224;27.910;2023-01-29T03:35:45;100630.97;;;1.25;100.00
11523;BME280;40093;43.224;27.910;2023-01-29T03:38:14;100645.63;;;1.24;100.00
11523;BME280;40093;43.224;27.910;2023-01-29T03:40:46;100649.44;;;1.23;100.00
11523;BME280;40093;43.224;27.910;2023-01-29T03:43:23;100667.56;;;1.14;100.00
11523;BME280;40093;43.224;27.910;2023-01-29T03:45:59;100654.63;;;1.11;100.00
11523;BME280;40093;43.224;27.910;2023-01-29T03:48:31;100607.63;;;1.16;100.00
11523;BME280;40093;43.224;27.910;2023-01-29T03:51:11;100685.00;;;1.22;100.00
11523;BME280;40093;43.224;27.910;2023-01-29T03:53:44;100613.47;;;1.09;100.00
11523;BME280;40093;43.224;27.910;2023-01-29T03:56:20;100559.94;;;1.15;100.00
11523;BME280;40093;43.224;27.910;2023-01-29T03:58:55;100622.25;;;1.06;100.00
11523;BME280;40093;43.224;27.910;2023-01-29T04:01:28;100677.72;;;1.09;100.00
11523;BME280;40093;43.224;27.910;2023-01-29T04:04:02;100666.47;;;1.15;100.00
11523;BME280;40093;43.224;27.910;2023-01-29T04:06:33;100581.19;;;1.21;100.00
11523;BME280;40093;43.224;27.910;2023-01-29T04:09:04;100649.56;;;1.18;100.00
11523;BME280;40093;43.224;27.910;2023-01-29T04:11:36;100659.28;;;1.19;100.00
11523;BME280;40093;43.224;27.910;2023-01-29T04:14:06;100612.88;;;1.12;100.00
11523;BME280;40093;43.224;27.910;2023-01-29T04:16:39;100678.75;;;1.21;100.00
11523;BME280;40093;43.224;27.910;2023-01-29T04:19:07;100680.63;;;1.12;100.00
11523;BME280;40093;43.224;27.910;2023-01-29T04:21:34;100688.81;;;1.21;100.00
11523;BME280;40093;43.224;27.910;2023-01-29T04:24:03;100712.63;;;1.32;100.00
11523;BME280;40093;43.224;27.910;2023-01-29T04:26:52;100710.78;;;1.41;100.00
11523;BME280;40093;43.224;27.910;2023-01-29T04:29:32;100735.94;;;1.33;100.00
11523;BME280;40093;43.224;27.910;2023-01-29T04:32:10;100745.16;;;1.32;100.00
11523;BME280;40093;43.224;27.910;2023-01-29T04:34:50;100753.19;;;1.37;100.00
11523;BME280;40093;43.224;27.910;2023-01-29T04:37:25;100763.28;;;1.45;100.00
11523;BME280;40093;43.224;27.910;2023-01-29T04:39:57;100777.19;;;1.52;100.00
11523;BME280;40093;43.224;27.910;2023-01-29T04:42:30;100792.44;;;1.62;100.00
11523;BME280;40093;43.224;27.910;2023-01-29T04:45:03;100789.22;;;1.60;100.00
11523;BME280;40093;43.224;27.910;2023-01-29T04:47:41;100787.53;;;1.72;100.00
11523;BME280;40093;43.224;27.910;2023-01-29T04:50:17;100795.81;;;1.67;100.00
11523;BME280;40093;43.224;27.910;2023-01-29T04:52:50;100790.13;;;1.77;100.00
11523;BME280;40093;43.224;27.910;2023-01-29T04:55:27;100792.00;;;1.68;100.00
11523;BME280;40093;43.224;27.910;2023-01-29T04:58:02;100800.50;;;1.53;100.00
11523;BME280;40093;43.224;27.910;2023-01-29T05:00:33;100795.44;;;1.60;100.00
11523;BME280;40093;43.224;27.910;2023-01-29T05:03:05;100801.06;;;1.64;100.00
11523;BME280;40093;43.224;27.910;2023-01-29T05:05:34;100806.41;;;1.77;100.00
11523;BME280;40093;43.224;27.910;2023-01-29T05:08:02;100810.13;;;1.90;100.00
11523;BME280;40093;43.224;27.910;2023-01-29T05:10:30;100812.59;;;2.00;100.00
11523;BME280;40093;43.224;27.910;2023-01-29T05:13:00;100807.66;;;2.02;100.00
11523;BME280;40093;43.224;27.910;2023-01-29T05:15:33;100811.31;;;1.75;100.00
11523;BME280;40093;43.224;27.910;2023-01-29T05:18:00;100799.47;;;1.93;100.00
11523;BME280;40093;43.224;27.910;2023-01-29T05:20:32;100813.44;;;2.09;100.00
11523;BME280;40093;43.224;27.910;2023-01-29T05:22:59;100810.31;;;1.93;100.00
11523;BME280;40093;43.224;27.910;2023-01-29T05:25:28;100816.44;;;2.07;100.00
11523;BME280;40093;43.224;27.910;2023-01-29T05:27:55;100812.56;;;1.91;100.00
11523;BME280;40093;43.224;27.910;2023-01-29T05:30:35;100811.47;;;2.01;100.00
11523;BME280;40093;43.224;27.910;2023-01-29T05:33:04;100814.91;;;1.84;100.00
11523;BME280;40093;43.224;27.910;2023-01-29T05:35:32;100813.97;;;1.89;100.00
11523;BME280;40093;43.224;27.910;2023-01-29T05:37:59;100810.50;;;1.66;100.00
11523;BME280;40093;43.224;27.910;2023-01-29T05:40:26;100798.13;;;1.82;100.00
11523;BME280;40093;43.224;27.910;2023-01-29T05:42:53;100812.31;;;1.79;100.00
11523;BME280;40093;43.224;27.910;2023-01-29T05:45:20;100804.44;;;1.69;100.00
11523;BME280;40093;43.224;27.910;2023-01-29T05:47:47;100839.53;;;1.96;100.00
11523;BME280;40093;43.224;27.910;2023-01-29T05:50:14;100821.19;;;1.93;100.00
11523;BME280;40093;43.224;27.910;2023-01-29T05:52:43;100814.22;;;1.79;100.00
11523;BME280;40093;43.224;27.910;2023-01-29T05:55:10;100829.13;;;1.90;100.00
11523;BME280;40093;43.224;27.910;2023-01-29T05:57:38;100855.78;;;1.88;100.00
11523;BME280;40093;43.224;27.910;2023-01-29T06:00:07;100860.59;;;1.91;100.00
11523;BME280;40093;43.224;27.910;2023-01-29T06:02:34;100847.34;;;1.89;100.00
11523;BME280;40093;43.224;27.910;2023-01-29T06:05:01;100830.81;;;1.99;100.00
11523;BME280;40093;43.224;27.910;2023-01-29T06:07:27;100855.31;;;2.16;100.00
11523;BME280;40093;43.224;27.910;2023-01-29T06:09:56;100849.03;;;2.07;100.00
11523;BME280;40093;43.224;27.910;2023-01-29T06:12:23;100864.44;;;2.20;100.00
11523;BME280;40093;43.224;27.910;2023-01-29T06:14:49;100870.00;;;2.15;100.00
11523;BME280;40093;43.224;27.910;2023-01-29T06:17:16;100870.16;;;2.10;100.00
11523;BME280;40093;43.224;27.910;2023-01-29T06:19:43;100861.84;;;2.15;100.00
11523;BME280;40093;43.224;27.910;2023-01-29T06:22:10;100866.22;;;2.25;100.00
11523;BME280;40093;43.224;27.910;2023-01-29T06:24:37;100866.91;;;2.30;100.00
11523;BME280;40093;43.224;27.910;2023-01-29T06:27:05;100865.66;;;2.44;100.00
11523;BME280;40093;43.224;27.910;2023-01-29T06:29:32;100877.97;;;2.42;100.00
11523;BME280;40093;43.224;27.910;2023-01-29T06:31:59;100860.69;;;2.38;100.00
11523;BME280;40093;43.224;27.910;2023-01-29T06:34:26;100866.28;;;2.72;100.00
11523;BME280;40093;43.224;27.910;2023-01-29T06:36:52;100881.00;;;2.79;100.00
11523;BME280;40093;43.224;27.910;2023-01-29T06:39:19;100876.78;;;2.65;100.00
11523;BME280;40093;43.224;27.910;2023-01-29T06:41:46;100893.13;;;2.82;100.00
11523;BME280;40093;43.224;27.910;2023-01-29T06:44:14;100890.13;;;2.92;100.00
11523;BME280;40093;43.224;27.910;2023-01-29T06:46:41;100858.44;;;2.70;100.00
11523;BME280;40093;43.224;27.910;2023-01-29T06:49:08;100888.50;;;2.74;100.00
11523;BME280;40093;43.224;27.910;2023-01-29T06:51:35;100887.38;;;2.75;100.00
11523;BME280;40093;43.224;27.910;2023-01-29T06:54:02;100894.41;;;2.76;100.00
11523;BME280;40093;43.224;27.910;2023-01-29T06:56:30;100914.22;;;2.76;100.00
11523;BME280;40093;43.224;27.910;2023-01-29T06:58:57;100897.78;;;2.81;100.00
11523;BME280;40093;43.224;27.910;2023-01-29T07:01:26;100900.13;;;2.66;100.00
11523;BME280;40093;43.224;27.910;2023-01-29T07:03:53;100899.75;;;2.59;100.00
11523;BME280;40093;43.224;27.910;2023-01-29T07:06:20;100901.53;;;2.63;100.00
11523;BME280;40093;43.224;27.910;2023-01-29T07:08:47;100848.88;;;2.42;100.00
11523;BME280;40093;43.224;27.910;2023-01-29T07:11:13;100890.88;;;2.37;100.00
11523;BME280;40093;43.224;27.910;2023-01-29T07:13:40;100882.94;;;2.40;100.00
11523;BME280;40093;43.224;27.910;2023-01-29T07:16:08;100889.28;;;2.36;100.00
11523;BME280;40093;43.224;27.910;2023-01-29T07:18:36;100890.72;;;2.33;100.00
11523;BME280;40093;43.224;27.910;2023-01-29T07:21:04;100868.06;;;2.46;100.00
11523;BME280;40093;43.224;27.910;2023-01-29T07:23:32;100898.72;;;2.38;100.00
11523;BME280;40093;43.224;27.910;2023-01-29T07:26:00;100896.84;;;2.47;100.00
11523;BME280;40093;43.224;27.910;2023-01-29T07:28:27;100890.41;;;2.13;100.00
11523;BME280;40093;43.224;27.910;2023-01-29T07:30:55;100902.09;;;2.13;100.00
11523;BME280;40093;43.224;27.910;2023-01-29T07:33:22;100906.63;;;2.26;100.00
11523;BME280;40093;43.224;27.910;2023-01-29T07:35:51;100888.25;;;2.23;100.00
11523;BME280;40093;43.224;27.910;2023-01-29T07:38:18;100898.72;;;2.38;100.00
11523;BME280;40093;43.224;27.910;2023-01-29T07:40:45;100912.34;;;2.46;100.00
11523;BME280;40093;43.224;27.910;2023-01-29T07:43:12;100915.47;;;2.62;100.00
11523;BME280;40093;43.224;27.910;2023-01-29T07:45:39;100918.94;;;2.54;100.00
11523;BME280;40093;43.224;27.910;2023-01-29T07:48:10;100926.44;;;2.57;100.00
11523;BME280;40093;43.224;27.910;2023-01-29T07:50:37;100923.09;;;2.60;100.00
11523;BME280;40093;43.224;27.910;2023-01-29T07:53:06;100934.63;;;2.65;100.00
11523;BME280;40093;43.224;27.910;2023-01-29T07:55:33;100938.78;;;2.63;100.00
11523;BME280;40093;43.224;27.910;2023-01-29T07:58:01;100927.28;;;2.66;100.00
11523;BME280;40093;43.224;27.910;2023-01-29T08:00:28;100929.09;;;2.79;100.00
11523;BME280;40093;43.224;27.910;2023-01-29T08:03:01;100891.19;;;2.35;100.00
11523;BME280;40093;43.224;27.910;2023-01-29T08:05:28;100922.31;;;2.59;100.00
11523;BME280;40093;43.224;27.910;2023-01-29T08:07:55;100857.97;;;2.38;100.00
11523;BME280;40093;43.224;27.910;2023-01-29T08:10:23;100926.13;;;2.28;100.00
11523;BME280;40093;43.224;27.910;2023-01-29T08:12:53;100926.13;;;2.28;100.00
11523;BME280;40093;43.224;27.910;2023-01-29T08:15:20;100911.53;;;2.46;100.00
11523;BME280;40093;43.224;27.910;2023-01-29T08:17:47;100894.38;;;2.37;100.00
11523;BME280;40093;43.224;27.910;2023-01-29T08:20:14;100918.09;;;2.45;100.00
11523;BME280;40093;43.224;27.910;2023-01-29T08:22:41;100938.31;;;2.39;100.00
11523;BME280;40093;43.224;27.910;2023-01-29T08:25:08;100916.84;;;2.51;100.00
11523;BME280;40093;43.224;27.910;2023-01-29T08:27:37;100909.09;;;2.36;100.00
11523;BME280;40093;43.224;27.910;2023-01-29T08:30:05;100917.50;;;2.26;100.00
11523;BME280;40093;43.224;27.910;2023-01-29T08:32:32;100923.94;;;2.30;100.00
11523;BME280;40093;43.224;27.910;2023-01-29T08:34:59;100919.53;;;2.21;100.00
11523;BME280;40093;43.224;27.910;2023-01-29T08:37:26;100891.41;;;2.17;100.00
11523;BME280;40093;43.224;27.910;2023-01-29T08:39:53;100915.97;;;2.12;100.00
11523;BME280;40093;43.224;27.910;2023-01-29T08:42:20;100913.31;;;2.20;100.00
11523;BME280;40093;43.224;27.910;2023-01-29T08:44:48;100920.69;;;2.28;100.00
11523;BME280;40093;43.224;27.910;2023-01-29T08:47:15;100922.88;;;2.18;100.00
11523;BME280;40093;43.224;27.910;2023-01-29T08:49:42;100932.63;;;2.19;100.00
11523;BME280;40093;43.224;27.910;2023-01-29T08:52:08;100920.72;;;2.06;100.00
11523;BME280;40093;43.224;27.910;2023-01-29T08:54:35;100913.69;;;2.05;100.00
11523;BME280;40093;43.224;27.910;2023-01-29T08:57:02;100900.41;;;2.26;100.00
11523;BME280;40093;43.224;27.910;2023-01-29T08:59:29;100898.94;;;2.20;100.00
11523;BME280;40093;43.224;27.910;2023-01-29T09:01:58;100914.03;;;2.34;100.00
11523;BME280;40093;43.224;27.910;2023-01-29T09:04:24;100911.56;;;2.24;100.00
11523;BME280;40093;43.224;27.910;2023-01-29T09:06:51;100920.69;;;2.28;100.00
11523;BME280;40093;43.224;27.910;2023-01-29T09:09:18;100902.66;;;2.24;100.00
11523;BME280;40093;43.224;27.910;2023-01-29T09:11:45;100910.34;;;2.30;100.00
11523;BME280;40093;43.224;27.910;2023-01-29T09:14:12;100917.16;;;2.19;100.00
11523;BME280;40093;43.224;27.910;2023-01-29T09:16:39;100892.09;;;2.22;100.00
11523;BME280;40093;43.224;27.910;2023-01-29T09:19:07;100908.69;;;2.21;100.00
11523;BME280;40093;43.224;27.910;2023-01-29T09:21:34;100896.41;;;2.23;100.00
11523;BME280;40093;43.224;27.910;2023-01-29T09:24:01;100903.31;;;2.29;100.00
11523;BME280;40093;43.224;27.910;2023-01-29T09:26:28;100919.06;;;2.49;100.00
11523;BME280;40093;43.224;27.910;2023-01-29T09:28:55;100908.69;;;2.51;100.00
11523;BME280;40093;43.224;27.910;2023-01-29T09:31:21;100904.53;;;2.53;100.00
11523;BME280;40093;43.224;27.910;2023-01-29T09:33:48;100886.69;;;2.61;100.00
11523;BME280;40093;43.224;27.910;2023-01-29T09:36:16;100854.88;;;2.61;100.00
11523;BME280;40093;43.224;27.910;2023-01-29T09:38:43;100841.13;;;2.58;100.00
11523;BME280;40093;43.224;27.910;2023-01-29T09:41:21;100868.16;;;2.33;100.00
11523;BME280;40093;43.224;27.910;2023-01-29T09:43:54;100877.25;;;2.28;100.00
11523;BME280;40093;43.224;27.910;2023-01-29T09:46:25;100891.28;;;2.52;100.00
11523;BME280;40093;43.224;27.910;2023-01-29T09:49:01;100867.16;;;2.59;100.00
11523;BME280;40093;43.224;27.910;2023-01-29T09:51:34;100876.31;;;2.63;100.00
11523;BME280;40093;43.224;27.910;2023-01-29T09:54:13;100875.50;;;2.71;100.00
11523;BME280;40093;43.224;27.910;2023-01-29T09:56:44;100881.75;;;2.71;100.00
11523;BME280;40093;43.224;27.910;2023-01-29T09:59:13;100888.97;;;2.76;100.00
11523;BME280;40093;43.224;27.910;2023-01-29T10:01:49;100874.56;;;2.67;100.00
11523;BME280;40093;43.224;27.910;2023-01-29T10:04:41;100890.78;;;2.50;100.00
11523;BME280;40093;43.224;27.910;2023-01-29T10:07:25;100882.03;;;2.53;100.00
11523;BME280;40093;43.224;27.910;2023-01-29T10:10:10;100876.59;;;2.53;100.00
11523;BME280;40093;43.224;27.910;2023-01-29T10:13:00;100864.91;;;2.52;100.00
11523;BME280;40093;43.224;27.910;2023-01-29T10:15:46;100875.97;;;2.64;100.00
11523;BME280;40093;43.224;27.910;2023-01-29T10:18:32;100853.59;;;2.59;100.00
11523;BME280;40093;43.224;27.910;2023-01-29T10:21:11;100872.13;;;2.65;100.00
11523;BME280;40093;43.224;27.910;2023-01-29T10:23:46;100883.34;;;2.64;100.00
11523;BME280;40093;43.224;27.910;2023-01-29T10:26:19;100899.94;;;2.62;100.00
11523;BME280;40093;43.224;27.910;2023-01-29T10:28:50;100880.53;;;2.47;100.00
11523;BME280;40093;43.224;27.910;2023-01-29T10:31:21;100886.50;;;2.57;100.00
11523;BME280;40093;43.224;27.910;2023-01-29T10:33:56;100882.88;;;2.70;100.00
11523;BME280;40093;43.224;27.910;2023-01-29T10:36:31;100900.31;;;2.69;100.00
11523;BME280;40093;43.224;27.910;2023-01-29T10:39:00;100882.78;;;2.45;100.00
11523;BME280;40093;43.224;27.910;2023-01-29T10:41:41;100897.50;;;2.52;100.00
11523;BME280;40093;43.224;27.910;2023-01-29T10:44:26;100888.56;;;2.52;100.00
11523;BME280;40093;43.224;27.910;2023-01-29T10:47:08;100873.81;;;2.44;100.00
11523;BME280;40093;43.224;27.910;2023-01-29T10:49:51;100870.03;;;2.54;100.00
11523;BME280;40093;43.224;27.910;2023-01-29T10:52:32;100890.56;;;2.68;100.00
11523;BME280;40093;43.224;27.910;2023-01-29T10:55:16;100877.44;;;2.70;100.00
11523;BME280;40093;43.224;27.910;2023-01-29T10:57:52;100869.41;;;2.57;100.00
11523;BME280;40093;43.224;27.910;2023-01-29T11:00:23;100869.69;;;2.47;100.00
11523;BME280;40093;43.224;27.910;2023-01-29T11:02:52;100881.69;;;2.54;100.00
11523;BME280;40093;43.224;27.910;2023-01-29T11:05:23;100879.13;;;2.49;100.00
11523;BME280;40093;43.224;27.910;2023-01-29T11:08:00;100881.84;;;2.49;100.00
11523;BME280;40093;43.224;27.910;2023-01-29T11:10:32;100876.97;;;2.38;100.00
11523;BME280;40093;43.224;27.910;2023-01-29T11:13:03;100886.44;;;2.40;100.00
11523;BME280;40093;43.224;27.910;2023-01-29T11:15:31;100889.91;;;2.33;100.00
11523;BME280;40093;43.224;27.910;2023-01-29T11:18:04;100890.72;;;2.33;100.00
11523;BME280;40093;43.224;27.910;2023-01-29T11:20:36;100893.19;;;2.51;100.00
11523;BME280;40093;43.224;27.910;2023-01-29T11:23:03;100883.47;;;2.59;100.00
11523;BME280;40093;43.224;27.910;2023-01-29T11:25:31;100892.34;;;2.73;100.00
11523;BME280;40093;43.224;27.910;2023-01-29T11:27:59;100892.19;;;2.78;100.00
11523;BME280;40093;43.224;27.910;2023-01-29T11:30:29;100887.69;;;2.82;100.00
11523;BME280;40093;43.224;27.910;2023-01-29T11:33:04;100896.31;;;2.75;100.00
11523;BME280;40093;43.224;27.910;2023-01-29T11:35:33;100881.28;;;2.39;100.00
11523;BME280;40093;43.224;27.910;2023-01-29T11:38:20;100907.44;;;2.57;100.00
11523;BME280;40093;43.224;27.910;2023-01-29T11:40:50;100894.56;;;2.40;100.00
11523;BME280;40093;43.224;27.910;2023-01-29T11:43:22;100903.41;;;2.54;100.00
11523;BME280;40093;43.224;27.910;2023-01-29T11:45:55;100906.38;;;2.36;100.00
11523;BME280;40093;43.224;27.910;2023-01-29T11:48:28;100902.41;;;2.42;100.00
11523;BME280;40093;43.224;27.910;2023-01-29T11:50:59;100898.44;;;2.48;100.00
11523;BME280;40093;43.224;27.910;2023-01-29T11:53:34;100894.84;;;2.61;100.00
11523;BME280;40093;43.224;27.910;2023-01-29T11:56:14;100896.44;;;2.62;100.00
11523;BME280;40093;43.224;27.910;2023-01-29T11:58:42;100894.69;;;2.66;100.00
11523;BME280;40093;43.224;27.910;2023-01-29T12:01:09;100906.00;;;2.59;100.00
11523;BME280;40093;43.224;27.910;2023-01-29T12:03:41;100906.88;;;2.77;100.00
11523;BME280;40093;43.224;27.910;2023-01-29T12:06:16;100897.47;;;2.83;100.00
11523;BME280;40093;43.224;27.910;2023-01-29T12:08:44;100907.91;;;2.89;100.00
11523;BME280;40093;43.224;27.910;2023-01-29T12:11:27;100895.72;;;2.87;100.00
11523;BME280;40093;43.224;27.910;2023-01-29T12:13:55;100896.84;;;2.86;100.00
11523;BME280;40093;43.224;27.910;2023-01-29T12:16:25;100887.09;;;2.85;100.00
11523;BME280;40093;43.224;27.910;2023-01-29T12:18:56;100901.81;;;2.84;100.00
11523;BME280;40093;43.224;27.910;2023-01-29T12:21:32;100890.72;;;2.72;100.00
11523;BME280;40093;43.224;27.910;2023-01-29T12:24:03;100903.00;;;2.61;100.00
11523;BME280;40093;43.224;27.910;2023-01-29T12:26:36;100918.72;;;2.42;100.00
11523;BME280;40093;43.224;27.910;2023-01-29T12:29:22;100915.09;;;2.55;100.00
11523;BME280;40093;43.224;27.910;2023-01-29T12:31:58;100915.78;;;2.69;100.00
11523;BME280;40093;43.224;27.910;2023-01-29T12:34:34;100912.31;;;2.77;100.00
11523;BME280;40093;43.224;27.910;2023-01-29T12:37:12;100914.56;;;2.75;100.00
11523;BME280;40093;43.224;27.910;2023-01-29T12:39:42;100921.59;;;2.76;100.00
11523;BME280;40093;43.224;27.910;2023-01-29T12:42:14;100914.84;;;2.73;100.00
11523;BME280;40093;43.224;27.910;2023-01-29T12:44:45;100914.34;;;2.63;100.00
11523;BME280;40093;43.224;27.910;2023-01-29T12:47:18;100918.28;;;2.57;100.00
11523;BME280;40093;43.224;27.910;2023-01-29T12:49:50;100919.63;;;2.68;100.00
11523;BME280;40093;43.224;27.910;2023-01-29T12:52:21;100920.63;;;2.72;100.00
11523;BME280;40093;43.224;27.910;2023-01-29T12:54:52;100906.97;;;2.63;100.00
11523;BME280;40093;43.224;27.910;2023-01-29T12:57:24;100925.22;;;2.63;100.00
11523;BME280;40093;43.224;27.910;2023-01-29T13:00:00;100926.94;;;2.59;100.00
11523;BME280;40093;43.224;27.910;2023-01-29T13:02:35;100925.66;;;2.56;100.00